createdAt,value
2019-05-15T00:01:51.467Z,3.27
2019-05-15T00:04:18.667Z,3.53
2019-05-15T00:06:45.290Z,3.77
2019-05-15T00:09:11.871Z,3.20
2019-05-15T00:11:38.990Z,3.30
2019-05-15T00:14:05.611Z,2.90
2019-05-15T00:16:32.009Z,3.20
2019-05-15T00:18:59.050Z,3.20
2019-05-15T00:21:25.919Z,3.07
2019-05-15T00:23:52.968Z,2.93
2019-05-15T00:26:19.536Z,2.80
2019-05-15T00:28:47.874Z,2.60
2019-05-15T00:31:14.155Z,2.87
2019-05-15T00:33:40.527Z,2.70
2019-05-15T00:36:08.642Z,3.27
2019-05-15T00:38:35.251Z,2.53
2019-05-15T00:41:01.829Z,2.87
2019-05-15T00:43:29.149Z,2.63
2019-05-15T00:45:58.431Z,2.40
2019-05-15T00:48:24.295Z,3.13
2019-05-15T00:50:50.768Z,2.47
2019-05-15T00:53:18.981Z,2.40
2019-05-15T00:55:45.555Z,3.23
2019-05-15T00:58:12.128Z,2.93
2019-05-15T01:00:40.007Z,2.70
2019-05-15T01:03:08.737Z,2.50
2019-05-15T01:05:34.987Z,2.90
2019-05-15T01:08:01.455Z,2.70
2019-05-15T01:10:28.686Z,2.60
2019-05-15T01:12:55.375Z,2.77
2019-05-15T01:15:21.834Z,3.17
2019-05-15T01:17:49.197Z,2.60
2019-05-15T01:20:15.764Z,3.10
2019-05-15T01:22:42.123Z,3.33
2019-05-15T01:25:08.968Z,3.50
2019-05-15T01:27:35.649Z,3.33
2019-05-15T01:30:02.896Z,4.10
2019-05-15T01:32:29.264Z,3.50
2019-05-15T01:34:57.960Z,3.80
2019-05-15T01:37:24.142Z,4.07
2019-05-15T01:39:50.494Z,3.60
2019-05-15T01:42:18.586Z,3.47
2019-05-15T01:44:45.230Z,3.33
2019-05-15T01:47:11.688Z,3.47
2019-05-15T01:49:38.513Z,3.50
2019-05-15T01:52:05.051Z,3.40
2019-05-15T01:54:31.502Z,3.30
2019-05-15T01:56:58.753Z,3.10
2019-05-15T01:59:25.419Z,2.80
2019-05-15T02:01:51.988Z,3.20
2019-05-15T02:04:19.731Z,2.97
2019-05-15T02:06:48.229Z,2.90
2019-05-15T02:09:14.779Z,2.90
2019-05-15T02:11:41.249Z,2.67
2019-05-15T02:14:08.268Z,2.67
2019-05-15T02:16:35.064Z,2.90
2019-05-15T02:19:01.515Z,2.77
2019-05-15T02:21:28.838Z,2.83
2019-05-15T02:23:55.553Z,3.17
2019-05-15T02:26:22.171Z,3.17
2019-05-15T02:28:48.882Z,2.73
2019-05-15T02:31:19.217Z,2.70
2019-05-15T02:33:43.893Z,2.87
2019-05-15T02:36:10.249Z,2.50
2019-05-15T02:38:40.409Z,2.80
2019-05-15T02:41:05.060Z,2.73
2019-05-15T02:43:31.427Z,2.40
2019-05-15T02:46:00.530Z,2.80
2019-05-15T02:48:28.962Z,2.40
2019-05-15T02:50:54.595Z,2.60
2019-05-15T02:53:20.971Z,2.80
2019-05-15T02:55:49.526Z,3.00
2019-05-15T02:58:20.489Z,2.40
2019-05-15T03:00:52.040Z,2.50
2019-05-15T03:03:12.973Z,2.50
2019-05-15T03:05:40.877Z,2.40
2019-05-15T03:08:09.534Z,2.37
2019-05-15T03:10:36.072Z,2.43
2019-05-15T03:13:02.650Z,2.40
2019-05-15T03:15:29.312Z,2.10
2019-05-15T03:18:00.106Z,2.37
2019-05-15T03:20:25.506Z,2.20
2019-05-15T03:22:51.970Z,2.50
2019-05-15T03:25:19.194Z,2.27
2019-05-15T03:27:49.867Z,2.10
2019-05-15T03:30:21.061Z,2.63
2019-05-15T03:32:53.566Z,2.80
2019-05-15T03:35:15.398Z,2.40
2019-05-15T03:37:41.930Z,2.70
2019-05-15T03:40:10.302Z,2.37
2019-05-15T03:42:39.366Z,2.17
2019-05-15T03:45:05.419Z,2.87
2019-05-15T03:47:31.767Z,3.00
2019-05-15T03:50:00.150Z,2.30
2019-05-15T03:52:29.296Z,3.00
2019-05-15T03:54:55.005Z,2.17
2019-05-15T03:57:23.145Z,3.10
2019-05-15T03:59:50.020Z,2.10
2019-05-15T04:02:19.244Z,2.63
2019-05-15T04:04:44.668Z,2.67
2019-05-15T04:07:11.220Z,2.10
2019-05-15T04:09:38.679Z,2.50
2019-05-15T04:12:05.363Z,2.50
2019-05-15T04:14:31.732Z,2.30
2019-05-15T04:16:59.453Z,2.50
2019-05-15T04:19:29.365Z,2.30
2019-05-15T04:21:54.574Z,2.60
2019-05-15T04:24:21.545Z,2.50
2019-05-15T04:26:48.994Z,2.50
2019-05-15T04:29:15.468Z,2.30
2019-05-15T04:31:55.569Z,2.57
2019-05-15T04:34:10.330Z,2.10
2019-05-15T04:36:39.513Z,2.37
2019-05-15T04:39:05.642Z,2.30
2019-05-15T04:41:32.014Z,2.57
2019-05-15T04:43:59.779Z,1.93
2019-05-15T04:46:29.722Z,2.17
2019-05-15T04:48:54.800Z,2.07
2019-05-15T04:51:21.245Z,2.00
2019-05-15T04:53:50.221Z,2.27
2019-05-15T04:56:19.310Z,2.20
2019-05-15T04:58:45.861Z,1.97
2019-05-15T05:01:12.297Z,2.10
2019-05-15T05:03:39.645Z,1.90
2019-05-15T05:06:09.435Z,2.10
2019-05-15T05:08:34.860Z,2.13
2019-05-15T05:11:01.442Z,1.90
2019-05-15T05:13:28.709Z,1.70
2019-05-15T05:15:55.429Z,1.90
2019-05-15T05:18:21.851Z,2.00
2019-05-15T05:20:48.688Z,1.93
2019-05-15T05:23:15.331Z,1.93
2019-05-15T05:25:41.799Z,1.97
2019-05-15T05:28:08.709Z,1.70
2019-05-15T05:30:35.331Z,2.10
2019-05-15T05:33:01.783Z,1.77
2019-05-15T05:35:28.171Z,1.90
2019-05-15T05:37:54.633Z,1.63
2019-05-15T05:40:20.727Z,1.83
2019-05-15T05:42:48.007Z,1.70
2019-05-15T05:45:14.672Z,1.77
2019-05-15T05:47:41.119Z,1.67
2019-05-15T05:50:08.130Z,1.80
2019-05-15T05:52:34.647Z,1.73
2019-05-15T05:55:01.020Z,1.97
2019-05-15T05:57:28.006Z,1.90
2019-05-15T05:59:54.547Z,2.07
2019-05-15T06:02:20.896Z,1.40
2019-05-15T06:04:47.930Z,1.50
2019-05-15T06:07:14.637Z,1.73
2019-05-15T06:09:41.283Z,1.43
2019-05-15T06:12:07.851Z,1.60
2019-05-15T06:14:34.395Z,1.93
2019-05-15T06:17:00.759Z,1.80
2019-05-15T06:19:27.763Z,1.73
2019-05-15T06:22:00.263Z,1.80
2019-05-15T06:24:23.951Z,2.00
2019-05-15T06:26:50.317Z,2.07
2019-05-15T06:29:17.890Z,1.63
2019-05-15T06:31:44.669Z,1.70
2019-05-15T06:34:11.130Z,1.60
2019-05-15T06:36:39.284Z,1.87
2019-05-15T06:39:08.322Z,1.70
2019-05-15T06:41:34.440Z,1.93
2019-05-15T06:44:01.192Z,1.80
2019-05-15T06:46:28.138Z,2.20
2019-05-15T06:48:54.619Z,2.10
2019-05-15T06:51:21.187Z,2.13
2019-05-15T06:53:50.163Z,1.60
2019-05-15T06:56:18.752Z,2.17
2019-05-15T06:58:45.095Z,1.77
2019-05-15T07:01:11.574Z,1.97
2019-05-15T07:03:39.283Z,1.60
2019-05-15T07:06:06.007Z,2.10
2019-05-15T07:08:32.355Z,1.70
2019-05-15T07:10:58.927Z,2.30
2019-05-15T07:13:25.476Z,1.90
2019-05-15T07:15:51.845Z,2.10
2019-05-15T07:18:19.854Z,1.60
2019-05-15T07:20:48.841Z,2.00
2019-05-15T07:23:18.317Z,1.83
2019-05-15T07:25:44.185Z,1.80
2019-05-15T07:28:10.532Z,1.60
2019-05-15T07:30:41.225Z,2.20
2019-05-15T07:33:05.395Z,1.73
2019-05-15T07:35:31.917Z,1.53
2019-05-15T07:37:58.745Z,1.90
2019-05-15T07:40:25.235Z,1.90
2019-05-15T07:42:51.604Z,2.30
2019-05-15T07:45:19.741Z,1.70
2019-05-15T07:47:48.849Z,2.13
2019-05-15T07:50:16.000Z,1.73
2019-05-15T07:52:42.488Z,1.70
2019-05-15T07:55:09.331Z,2.03
2019-05-15T07:57:38.864Z,1.77
2019-05-15T08:00:08.159Z,2.20
2019-05-15T08:02:34.519Z,2.50
2019-05-15T08:05:01.075Z,1.67
2019-05-15T08:07:27.857Z,2.20
2019-05-15T08:09:54.500Z,1.70
2019-05-15T08:12:20.864Z,2.10
2019-05-15T08:14:50.518Z,1.97
2019-05-15T08:17:19.005Z,1.90
2019-05-15T08:19:43.935Z,1.47
2019-05-15T08:22:10.331Z,2.07
2019-05-15T08:24:38.931Z,1.90
2019-05-15T08:27:05.088Z,2.00
2019-05-15T08:29:31.552Z,1.63
2019-05-15T08:31:59.005Z,2.20
2019-05-15T08:34:28.126Z,2.02
2019-05-15T08:36:54.010Z,2.00
2019-05-15T08:39:20.691Z,2.47
2019-05-15T08:41:48.469Z,2.10
2019-05-15T08:44:15.123Z,1.87
2019-05-15T08:46:44.224Z,2.13
2019-05-15T08:49:09.932Z,1.90
2019-05-15T08:51:38.084Z,2.10
2019-05-15T08:54:04.575Z,2.23
2019-05-15T08:56:31.062Z,2.50
2019-05-15T08:58:58.081Z,2.37
2019-05-15T09:01:24.885Z,2.70
2019-05-15T09:03:52.124Z,2.70
2019-05-15T09:06:22.721Z,2.37
2019-05-15T09:08:49.074Z,2.30
2019-05-15T09:11:15.579Z,2.37
2019-05-15T09:13:43.730Z,1.90
2019-05-15T09:16:10.237Z,2.30
2019-05-15T09:18:38.927Z,1.90
2019-05-15T09:21:04.954Z,1.85
2019-05-15T09:23:31.323Z,1.87
2019-05-15T09:25:57.949Z,1.90
2019-05-15T09:28:24.649Z,1.70
2019-05-15T09:30:51.196Z,2.10
2019-05-15T09:33:20.161Z,1.92
2019-05-15T09:35:46.060Z,2.17
2019-05-15T09:38:12.763Z,1.67
2019-05-15T09:40:45.981Z,1.75
2019-05-15T09:43:10.840Z,1.40
2019-05-15T09:45:37.988Z,1.87
2019-05-15T09:48:04.327Z,1.98
2019-05-15T09:50:30.963Z,2.20
2019-05-15T09:52:58.815Z,1.80
2019-05-15T09:55:25.495Z,1.90
2019-05-15T09:57:54.933Z,1.90
2019-05-15T10:00:20.445Z,1.75
2019-05-15T10:02:48.567Z,2.15
2019-05-15T10:05:15.487Z,1.70
2019-05-15T10:07:41.953Z,2.17
2019-05-15T10:10:08.884Z,1.92
2019-05-15T10:12:35.477Z,2.10
2019-05-15T10:15:04.638Z,1.60
2019-05-15T10:17:31.207Z,1.70
2019-05-15T10:19:58.294Z,2.10
2019-05-15T10:22:24.923Z,1.90
2019-05-15T10:24:51.388Z,2.00
2019-05-15T10:27:18.089Z,2.25
2019-05-15T10:29:44.504Z,1.82
2019-05-15T10:32:11.061Z,1.55
2019-05-15T10:34:38.434Z,2.30
2019-05-15T10:37:05.140Z,2.30
2019-05-15T10:39:31.596Z,1.90
2019-05-15T10:41:58.061Z,2.15
2019-05-15T10:44:24.519Z,1.90
2019-05-15T10:46:51.072Z,1.80
2019-05-15T10:49:18.978Z,2.20
2019-05-15T10:51:45.620Z,1.80
2019-05-15T10:54:11.997Z,2.15
2019-05-15T10:56:38.709Z,2.25
2019-05-15T10:59:05.466Z,1.80
2019-05-15T11:01:32.112Z,2.08
2019-05-15T11:03:58.988Z,2.25
2019-05-15T11:06:25.636Z,2.08
2019-05-15T11:08:52.015Z,2.08
2019-05-15T11:11:18.541Z,2.00
2019-05-15T11:13:44.989Z,2.00
2019-05-15T11:16:11.371Z,2.85
2019-05-15T11:18:39.367Z,1.90
2019-05-15T11:21:08.231Z,1.98
2019-05-15T11:23:34.628Z,2.00
2019-05-15T11:26:01.171Z,1.62
2019-05-15T11:28:31.670Z,2.00
2019-05-15T11:30:55.956Z,1.95
2019-05-15T11:33:22.416Z,1.70
2019-05-15T11:36:00.523Z,1.80
2019-05-15T11:38:19.219Z,1.87
2019-05-15T11:40:45.545Z,1.87
2019-05-15T11:43:12.014Z,1.85
2019-05-15T11:45:39.207Z,1.75
2019-05-15T11:48:05.748Z,1.50
2019-05-15T11:50:32.304Z,1.20
2019-05-15T11:52:58.879Z,1.98
2019-05-15T11:55:25.343Z,1.50
2019-05-15T11:57:55.483Z,1.65
2019-05-15T12:00:26.895Z,1.25
2019-05-15T12:02:51.635Z,1.45
2019-05-15T12:05:18.362Z,1.87
2019-05-15T12:07:47.800Z,2.58
2019-05-15T12:10:13.334Z,1.70
2019-05-15T12:12:39.687Z,1.40
2019-05-15T12:15:06.757Z,1.60
2019-05-15T12:17:34.194Z,1.50
2019-05-15T12:20:05.740Z,1.50
2019-05-15T12:22:29.164Z,1.32
2019-05-15T12:24:55.550Z,1.40
2019-05-15T12:27:21.995Z,1.35
2019-05-15T12:29:49.189Z,1.67
2019-05-15T12:32:26.479Z,1.30
2019-05-15T12:34:44.216Z,1.05
2019-05-15T12:37:10.863Z,1.25
2019-05-15T12:39:40.956Z,1.27
2019-05-15T12:59:39.681Z,1.05
2019-05-15T13:01:52.616Z,0.90
2019-05-15T13:04:19.997Z,1.00
2019-05-15T13:06:55.753Z,1.00
2019-05-15T13:09:15.015Z,1.10
2019-05-15T13:11:41.398Z,0.95
2019-05-15T13:14:08.198Z,1.32
2019-05-15T13:16:34.612Z,1.52
2019-05-15T13:19:00.963Z,1.17
2019-05-15T13:21:29.472Z,1.10
2019-05-15T13:23:55.794Z,0.90
2019-05-15T13:26:26.506Z,1.10
2019-05-15T13:28:50.524Z,0.85
2019-05-15T13:31:18.960Z,1.10
2019-05-15T13:33:45.139Z,1.10
2019-05-15T13:36:11.644Z,1.62
2019-05-15T13:38:38.257Z,0.80
2019-05-15T13:41:05.253Z,0.98
2019-05-15T13:43:31.695Z,0.85
2019-05-15T13:45:58.172Z,1.15
2019-05-15T13:48:24.858Z,1.10
2019-05-15T13:50:51.320Z,1.40
2019-05-15T13:53:18.441Z,1.10
2019-05-15T13:55:45.037Z,1.10
2019-05-15T13:58:11.586Z,1.00
2019-05-15T14:00:38.916Z,1.00
2019-05-15T14:03:05.919Z,0.98
2019-05-15T14:05:32.385Z,1.00
2019-05-15T14:07:58.738Z,0.98
2019-05-15T14:10:25.211Z,1.22
2019-05-15T14:12:51.660Z,0.93
2019-05-15T14:15:18.327Z,1.15
2019-05-15T14:17:44.787Z,0.90
2019-05-15T14:20:11.652Z,1.00
2019-05-15T14:22:39.025Z,0.80
2019-05-15T14:25:05.924Z,1.20
2019-05-15T14:27:32.364Z,1.30
2019-05-15T14:29:58.838Z,1.10
2019-05-15T14:32:35.436Z,1.30
2019-05-15T14:34:53.619Z,1.00
2019-05-15T14:37:20.087Z,1.27
2019-05-15T14:39:52.051Z,1.00
2019-05-15T14:42:14.756Z,1.00
2019-05-15T14:44:41.105Z,0.90
2019-05-15T14:47:08.782Z,1.22
2019-05-15T14:49:35.975Z,1.15
2019-05-15T14:52:08.505Z,1.10
2019-05-15T14:54:30.803Z,1.10
2019-05-15T14:56:58.109Z,1.10
2019-05-15T14:59:24.790Z,1.27
2019-05-15T15:01:51.420Z,1.27
2019-05-15T15:04:18.540Z,1.00
2019-05-15T15:06:45.043Z,1.33
2019-05-15T15:09:11.503Z,1.30
2019-05-15T15:11:38.541Z,1.53
2019-05-15T15:14:05.115Z,1.30
2019-05-15T15:16:31.695Z,1.20
2019-05-15T15:18:58.506Z,2.30
2019-05-15T15:21:25.007Z,1.50
2019-05-15T15:23:51.386Z,1.63
2019-05-15T15:26:19.132Z,1.50
2019-05-15T15:28:48.665Z,1.90
2019-05-15T15:31:14.082Z,1.70
2019-05-15T15:33:40.537Z,1.63
2019-05-15T15:36:08.865Z,1.90
2019-05-15T15:38:43.189Z,1.57
2019-05-15T15:41:03.757Z,3.00
2019-05-15T15:43:30.307Z,2.17
2019-05-15T15:45:58.025Z,2.00
2019-05-15T15:48:24.637Z,1.70
2019-05-15T15:50:51.126Z,1.70
2019-05-15T15:53:19.137Z,1.70
2019-05-15T15:55:45.730Z,2.00
2019-05-15T15:58:12.200Z,2.47
2019-05-15T16:00:38.777Z,2.30
2019-05-15T16:03:05.426Z,2.27
2019-05-15T16:05:31.981Z,1.80
2019-05-15T16:07:59.171Z,2.03
2019-05-15T16:10:28.154Z,2.70
2019-05-15T16:12:54.078Z,2.37
2019-05-15T16:15:20.525Z,3.27
2019-05-15T16:17:49.278Z,3.07
2019-05-15T16:20:15.828Z,6.10
2019-05-15T16:22:43.167Z,6.33
2019-05-15T16:25:10.282Z,2.63
2019-05-15T16:27:38.234Z,2.57
2019-05-15T16:30:07.781Z,4.10
2019-05-15T16:32:33.661Z,2.07
2019-05-15T16:35:00.113Z,5.27
2019-05-15T16:37:26.801Z,3.73
2019-05-15T16:39:53.343Z,2.10
2019-05-15T16:42:19.815Z,2.53
2019-05-15T16:44:48.802Z,2.70
2019-05-15T16:47:14.519Z,2.33
2019-05-15T16:49:40.970Z,2.83
2019-05-15T16:52:09.265Z,1.90
2019-05-15T16:54:38.154Z,2.30
2019-05-15T16:57:04.395Z,2.30
2019-05-15T16:59:35.745Z,2.33
2019-05-15T17:01:59.120Z,2.30
2019-05-15T17:04:25.609Z,2.17
2019-05-15T17:06:51.973Z,2.80
2019-05-15T17:09:21.500Z,2.17
2019-05-15T17:11:49.095Z,2.20
2019-05-15T17:14:15.156Z,2.40
2019-05-15T17:16:41.759Z,2.80
2019-05-15T17:19:08.721Z,2.30
2019-05-15T17:21:35.177Z,2.40
2019-05-15T17:24:01.660Z,2.53
2019-05-15T17:26:28.959Z,2.80
2019-05-15T17:28:58.495Z,2.60
2019-05-15T17:31:24.954Z,2.47
2019-05-15T17:33:51.343Z,3.00
2019-05-15T17:36:18.567Z,3.90
2019-05-15T17:38:45.202Z,2.80
2019-05-15T17:41:11.665Z,2.90
2019-05-15T17:43:38.148Z,2.90
2019-05-15T17:46:04.820Z,3.07
2019-05-15T17:48:31.186Z,2.83
2019-05-15T17:50:59.180Z,2.93
2019-05-15T17:53:25.911Z,3.07
2019-05-15T17:55:53.074Z,2.80
2019-05-15T17:58:19.541Z,2.60
2019-05-15T18:00:48.487Z,3.17
2019-05-15T18:03:14.370Z,2.90
2019-05-15T18:05:40.761Z,3.27
2019-05-15T18:08:08.831Z,3.73
2019-05-15T18:10:35.396Z,2.57
2019-05-15T18:13:01.884Z,2.73
2019-05-15T18:15:28.633Z,2.63
2019-05-15T18:17:55.216Z,3.10
2019-05-15T18:20:23.572Z,3.60
2019-05-15T18:22:49.946Z,2.80
2019-05-15T18:25:18.252Z,3.50
2019-05-15T18:27:44.793Z,2.67
2019-05-15T18:30:11.231Z,3.10
2019-05-15T18:32:39.227Z,3.13
2019-05-15T18:35:08.150Z,2.60
2019-05-15T18:37:35.825Z,2.50
2019-05-15T18:40:06.213Z,2.90
2019-05-15T18:42:31.889Z,3.07
2019-05-15T18:44:58.487Z,2.67
2019-05-15T18:47:25.007Z,3.13
2019-05-15T18:50:04.277Z,2.73
2019-05-15T18:52:19.738Z,2.50
2019-05-15T18:54:48.103Z,2.93
2019-05-15T18:57:14.658Z,2.70
2019-05-15T18:59:41.630Z,2.77
2019-05-15T19:02:08.164Z,2.80
2019-05-15T19:04:34.653Z,2.80
2019-05-15T19:07:01.099Z,2.93
2019-05-15T19:09:28.196Z,2.70
2019-05-15T19:11:54.629Z,3.10
2019-05-15T19:14:21.215Z,2.77
2019-05-15T19:16:48.411Z,2.77
2019-05-15T19:19:15.469Z,3.40
2019-05-15T19:21:41.927Z,3.37
2019-05-15T19:24:08.395Z,3.17
2019-05-15T19:26:34.743Z,3.17
2019-05-15T19:29:01.107Z,2.70
2019-05-15T19:31:30.483Z,2.87
2019-05-15T19:33:55.968Z,2.60
2019-05-15T19:36:22.353Z,2.97
2019-05-15T19:38:49.024Z,2.90
2019-05-15T19:41:15.487Z,2.90
2019-05-15T19:43:41.844Z,3.60
2019-05-15T19:46:08.404Z,5.10
2019-05-15T19:48:34.766Z,4.40
2019-05-15T19:51:01.154Z,4.43
2019-05-15T19:53:28.330Z,6.43
2019-05-15T19:55:54.881Z,4.53
2019-05-15T19:58:21.427Z,5.83
2019-05-15T20:00:49.010Z,5.63
2019-05-15T20:03:17.840Z,6.13
2019-05-15T20:05:44.459Z,4.93
2019-05-15T20:08:10.915Z,3.00
2019-05-15T20:10:39.294Z,2.97
2019-05-15T20:13:05.631Z,2.60
2019-05-15T20:15:32.091Z,2.83
2019-05-15T20:17:58.446Z,2.97
2019-05-15T20:20:28.023Z,2.87
2019-05-15T20:22:53.871Z,2.80
2019-05-15T20:25:20.260Z,3.50
2019-05-15T20:27:48.113Z,3.73
2019-05-15T20:30:15.080Z,3.23
2019-05-15T20:32:41.436Z,2.47
2019-05-15T20:35:08.980Z,2.87
2019-05-15T20:37:38.646Z,2.87
2019-05-15T20:40:05.109Z,3.13
2019-05-15T20:42:31.691Z,3.00
2019-05-15T20:44:58.151Z,2.83
2019-05-15T20:47:24.634Z,2.90
2019-05-15T20:49:51.275Z,2.90
2019-05-15T20:52:21.364Z,3.47
2019-05-15T20:54:47.969Z,2.60
2019-05-15T20:57:14.344Z,3.27
2019-05-15T20:59:40.810Z,3.40
2019-05-15T21:02:08.118Z,2.70
2019-05-15T21:04:34.637Z,2.77
2019-05-15T21:07:01.000Z,2.90
2019-05-15T21:09:30.224Z,3.00
2019-05-15T21:11:55.817Z,2.70
2019-05-15T21:14:22.290Z,3.10
2019-05-15T21:16:48.640Z,3.30
2019-05-15T21:19:15.068Z,2.90
2019-05-15T21:21:41.680Z,2.60
2019-05-15T21:24:10.246Z,3.90
2019-05-15T21:26:38.248Z,4.20
2019-05-15T21:29:04.659Z,4.27
2019-05-15T21:31:31.027Z,3.17
2019-05-15T21:33:58.845Z,3.13
2019-05-15T21:36:25.366Z,3.97
2019-05-15T21:38:52.056Z,4.70
2019-05-15T21:41:18.958Z,3.40
2019-05-15T21:43:45.476Z,3.37
2019-05-15T21:46:12.063Z,4.77
2019-05-15T21:48:38.418Z,2.70
2019-05-15T21:51:04.897Z,3.10
2019-05-15T21:53:31.239Z,3.57
2019-05-15T21:55:58.848Z,3.90
2019-05-15T21:58:25.375Z,4.50
2019-05-15T22:00:52.948Z,4.47
2019-05-15T22:03:19.999Z,4.50
2019-05-15T22:05:48.431Z,4.27
2019-05-15T22:08:15.136Z,3.77
2019-05-15T22:10:41.496Z,4.57
2019-05-15T22:13:07.875Z,4.97
2019-05-15T22:15:34.339Z,4.30
2019-05-15T22:18:00.719Z,4.53
2019-05-15T22:20:30.156Z,4.67
2019-05-15T22:22:55.431Z,4.60
2019-05-15T22:25:21.815Z,4.80
2019-05-15T22:27:48.769Z,5.50
2019-05-15T22:30:16.143Z,5.17
2019-05-15T22:32:42.590Z,5.10
2019-05-15T22:35:13.607Z,4.80
2019-05-15T22:37:38.693Z,4.77
2019-05-15T22:40:08.907Z,5.13
2019-05-15T22:42:35.487Z,5.27
2019-05-15T22:45:02.783Z,5.73
2019-05-15T22:47:29.162Z,5.50
2019-05-15T22:49:55.611Z,5.97
2019-05-15T22:52:22.198Z,5.30
2019-05-15T22:54:48.744Z,5.50
2019-05-15T22:57:15.108Z,5.50
2019-05-15T22:59:41.562Z,6.03
2019-05-15T23:02:09.363Z,5.97
2019-05-15T23:04:37.821Z,5.80
2019-05-15T23:07:03.971Z,5.63
2019-05-15T23:09:30.344Z,5.67
2019-05-15T23:11:58.842Z,5.60
2019-05-15T23:14:25.384Z,5.70
2019-05-15T23:16:51.751Z,5.87
2019-05-15T23:19:18.710Z,5.00
2019-05-15T23:21:45.278Z,5.17
2019-05-15T23:24:11.748Z,5.70
2019-05-15T23:26:38.807Z,4.83
2019-05-15T23:29:07.803Z,5.33
2019-05-15T23:31:33.862Z,4.67
2019-05-15T23:34:00.198Z,5.10
2019-05-15T23:36:28.496Z,4.70
2019-05-15T23:38:54.923Z,5.53
2019-05-15T23:41:22.311Z,5.33
2019-05-15T23:43:48.769Z,5.13
2019-05-15T23:46:15.159Z,5.63
2019-05-15T23:48:41.516Z,5.10
2019-05-15T23:51:08.482Z,5.00
2019-05-15T23:53:35.140Z,5.40
2019-05-15T23:56:01.712Z,5.20
2019-05-15T23:58:29.173Z,4.77
